createdAt,value
2022-11-05T00:00:35.904Z,10.42
2022-11-05T00:03:23.524Z,10.35
2022-11-05T00:06:12.262Z,10.39
2022-11-05T00:09:00.301Z,10.45
2022-11-05T00:11:47.181Z,10.40
2022-11-05T00:14:33.213Z,10.39
2022-11-05T00:17:01.151Z,10.37
2022-11-05T00:19:28.693Z,10.45
2022-11-05T00:22:14.734Z,10.45
2022-11-05T00:25:01.209Z,10.57
2022-11-05T00:27:29.222Z,10.45
2022-11-05T00:29:57.127Z,10.44
2022-11-05T00:32:24.738Z,10.44
2022-11-05T00:34:52.347Z,10.54
2022-11-05T00:37:19.976Z,10.61
2022-11-05T00:39:47.915Z,10.74
2022-11-05T00:42:34.931Z,10.77
2022-11-05T00:45:03.185Z,10.80
2022-11-05T00:47:51.159Z,10.73
2022-11-05T00:50:20.573Z,10.61
2022-11-05T00:52:56.739Z,10.60
2022-11-05T00:55:30.879Z,10.62
2022-11-05T00:57:58.519Z,10.53
2022-11-05T01:00:29.821Z,10.54
2022-11-05T01:03:02.063Z,10.48
2022-11-05T01:05:30.844Z,10.54
2022-11-05T01:07:59.095Z,10.39
2022-11-05T01:10:27.976Z,10.44
2022-11-05T01:12:56.535Z,10.53
2022-11-05T01:15:24.687Z,10.66
2022-11-05T01:17:52.779Z,10.57
2022-11-05T01:20:20.384Z,10.40
2022-11-05T01:22:48.399Z,10.30
2022-11-05T01:25:16.011Z,10.23
2022-11-05T01:27:44.317Z,10.23
2022-11-05T01:30:13.005Z,10.20
2022-11-05T01:32:41.102Z,10.14
2022-11-05T01:35:17.891Z,10.17
2022-11-05T01:37:46.583Z,10.05
2022-11-05T01:40:21.087Z,9.96
2022-11-05T01:42:49.302Z,9.88
2022-11-05T01:45:22.635Z,10.03
2022-11-05T01:47:53.346Z,10.02
2022-11-05T01:50:29.441Z,10.11
2022-11-05T01:53:09.900Z,9.99
2022-11-05T01:55:44.613Z,9.96
2022-11-05T01:58:18.347Z,9.93
2022-11-05T02:00:45.815Z,9.96
2022-11-05T02:03:16.617Z,9.86
2022-11-05T02:05:45.402Z,9.91
2022-11-05T02:08:20.236Z,9.81
2022-11-05T02:10:48.576Z,9.71
2022-11-05T02:13:16.141Z,9.71
2022-11-05T02:16:14.806Z,9.65
2022-11-05T02:18:51.337Z,9.64
2022-11-05T02:21:21.560Z,9.73
2022-11-05T02:24:03.643Z,9.73
2022-11-05T02:26:35.225Z,9.72
2022-11-05T02:29:14.831Z,9.82
2022-11-05T02:32:01.190Z,9.96
2022-11-05T02:35:08.142Z,10.09
2022-11-05T02:37:42.030Z,10.08
2022-11-05T02:40:19.254Z,10.09
2022-11-05T02:42:55.450Z,10.10
2022-11-05T02:45:39.389Z,10.15
2022-11-05T02:48:25.262Z,10.20
2022-11-05T02:51:03.012Z,10.29
2022-11-05T02:53:45.453Z,10.28
2022-11-05T02:56:22.708Z,10.20
2022-11-05T02:58:50.577Z,10.28
2022-11-05T03:01:18.188Z,10.23
2022-11-05T03:03:55.912Z,10.33
2022-11-05T03:06:54.522Z,10.50
2022-11-05T03:09:24.979Z,10.48
2022-11-05T03:12:12.288Z,10.40
2022-11-05T03:14:58.144Z,10.45
2022-11-05T03:17:45.076Z,10.50
2022-11-05T03:20:16.904Z,10.50
2022-11-05T03:23:05.002Z,10.48
2022-11-05T03:25:39.242Z,10.41
2022-11-05T03:28:09.165Z,10.40
2022-11-05T03:30:41.192Z,10.44
2022-11-05T03:33:22.385Z,10.41
2022-11-05T03:36:01.247Z,10.32
2022-11-05T03:38:34.022Z,10.29
2022-11-05T03:41:07.481Z,10.21
2022-11-05T03:43:50.451Z,10.24
2022-11-05T03:46:36.307Z,10.22
2022-11-05T03:49:07.895Z,10.25
2022-11-05T03:51:58.266Z,10.13
2022-11-05T03:54:28.401Z,10.17
2022-11-05T03:57:04.859Z,10.17
2022-11-05T03:59:43.513Z,10.12
2022-11-05T04:02:13.585Z,10.05
2022-11-05T04:04:42.132Z,9.96
2022-11-05T04:07:30.196Z,9.97
2022-11-05T04:10:16.761Z,10.06
2022-11-05T04:13:03.225Z,10.03
2022-11-05T04:15:30.965Z,10.07
2022-11-05T04:17:59.101Z,10.01
2022-11-05T04:20:45.565Z,9.89
2022-11-05T04:23:32.304Z,9.83
2022-11-05T04:26:00.162Z,9.74
2022-11-05T04:28:48.208Z,9.71
2022-11-05T04:31:16.443Z,9.67
2022-11-05T04:33:44.450Z,9.64
2022-11-05T04:36:12.062Z,9.63
2022-11-05T04:38:40.002Z,9.63
2022-11-05T04:41:15.701Z,9.64
2022-11-05T04:43:44.180Z,9.69
2022-11-05T04:46:12.174Z,9.70
2022-11-05T04:48:39.802Z,9.69
2022-11-05T04:51:07.474Z,9.65
2022-11-05T04:53:35.507Z,9.63
2022-11-05T04:56:21.341Z,9.60
2022-11-05T04:58:50.047Z,9.65
2022-11-05T05:01:20.960Z,9.65
2022-11-05T05:03:49.647Z,9.58
2022-11-05T05:06:18.183Z,9.55
2022-11-05T05:08:50.239Z,9.55
2022-11-05T05:11:20.878Z,9.54
2022-11-05T05:13:49.837Z,9.49
2022-11-05T05:16:23.151Z,9.48
2022-11-05T05:18:52.110Z,9.45
2022-11-05T05:21:39.455Z,9.50
2022-11-05T05:24:14.165Z,9.56
2022-11-05T05:26:45.523Z,9.53
2022-11-05T05:29:13.407Z,9.50
2022-11-05T05:31:42.108Z,9.51
2022-11-05T05:34:14.459Z,9.52
2022-11-05T05:36:42.159Z,9.47
2022-11-05T05:39:13.189Z,9.48
2022-11-05T05:41:40.930Z,9.50
2022-11-05T05:44:08.441Z,9.46
2022-11-05T05:46:35.931Z,9.42
2022-11-05T05:49:06.722Z,9.48
2022-11-05T05:51:38.675Z,9.46
2022-11-05T05:54:06.288Z,9.54
2022-11-05T05:56:34.303Z,9.58
2022-11-05T05:59:02.818Z,9.59
2022-11-05T06:01:30.506Z,9.48
2022-11-05T06:03:58.003Z,9.38
2022-11-05T06:06:25.614Z,9.34
2022-11-05T06:08:54.634Z,9.30
2022-11-05T06:11:24.120Z,9.27
2022-11-05T06:13:51.964Z,9.32
2022-11-05T06:16:19.544Z,9.38
2022-11-05T06:18:47.344Z,9.39
2022-11-05T06:21:17.271Z,9.45
2022-11-05T06:23:45.962Z,9.47
2022-11-05T06:26:17.054Z,9.56
2022-11-05T06:28:45.324Z,9.59
2022-11-05T06:31:14.670Z,9.51
2022-11-05T06:33:42.949Z,9.54
2022-11-05T06:36:15.487Z,9.67
2022-11-05T06:38:43.133Z,9.79
2022-11-05T06:41:11.106Z,10.03
2022-11-05T06:43:39.073Z,10.06
2022-11-05T06:46:07.610Z,10.17
2022-11-05T06:48:35.354Z,10.25
2022-11-05T06:51:03.820Z,10.36
2022-11-05T06:53:32.143Z,10.52
2022-11-05T06:56:05.592Z,10.75
2022-11-05T06:58:34.771Z,10.82
2022-11-05T07:01:08.692Z,10.89
2022-11-05T07:03:38.007Z,10.97
2022-11-05T07:06:07.194Z,11.17
2022-11-05T07:08:36.066Z,11.31
2022-11-05T07:11:04.371Z,11.40
2022-11-05T07:13:32.419Z,11.59
2022-11-05T07:16:00.102Z,11.77
2022-11-05T07:18:27.572Z,11.90
2022-11-05T07:20:55.287Z,12.03
2022-11-05T07:23:23.287Z,12.22
2022-11-05T07:25:51.071Z,12.29
2022-11-05T07:28:18.625Z,12.52
2022-11-05T07:30:46.407Z,12.84
2022-11-05T07:33:14.968Z,12.97
2022-11-05T07:35:42.702Z,13.04
2022-11-05T07:38:11.535Z,13.19
2022-11-05T07:40:39.087Z,13.37
2022-11-05T07:43:06.597Z,13.51
2022-11-05T07:45:34.521Z,13.66
2022-11-05T07:48:04.147Z,13.87
2022-11-05T07:50:34.400Z,14.18
2022-11-05T07:53:03.376Z,14.41
2022-11-05T07:55:31.114Z,14.41
2022-11-05T07:57:59.265Z,14.52
2022-11-05T08:00:28.629Z,14.22
2022-11-05T08:03:08.558Z,14.52
2022-11-05T08:05:39.312Z,14.71
2022-11-05T08:08:09.233Z,14.77
2022-11-05T08:10:38.227Z,14.96
2022-11-05T08:13:07.629Z,15.13
2022-11-05T08:15:36.252Z,15.15
2022-11-05T08:18:06.589Z,14.96
2022-11-05T08:20:35.434Z,15.25
2022-11-05T08:23:02.987Z,15.37
2022-11-05T08:25:31.472Z,15.78
2022-11-05T08:28:05.201Z,15.79
2022-11-05T08:30:33.433Z,15.76
2022-11-05T08:33:05.358Z,16.37
2022-11-05T08:35:34.817Z,16.58
2022-11-05T08:38:05.294Z,17.28
2022-11-05T08:40:35.013Z,17.24
2022-11-05T08:43:05.009Z,17.87
2022-11-05T08:45:34.075Z,18.16
2022-11-05T08:48:06.673Z,19.15
2022-11-05T08:50:35.367Z,19.01
2022-11-05T08:53:03.622Z,20.19
2022-11-05T08:55:31.691Z,18.90
2022-11-05T08:58:04.289Z,19.94
2022-11-05T09:00:34.955Z,20.48
2022-11-05T09:03:05.072Z,21.53
2022-11-05T09:05:38.296Z,21.39
2022-11-05T09:08:08.618Z,21.98
2022-11-05T09:10:37.164Z,21.81
2022-11-05T09:13:05.299Z,21.73
2022-11-05T09:15:35.535Z,22.28
2022-11-05T09:18:05.679Z,22.37
2022-11-05T09:20:34.108Z,22.30
2022-11-05T09:23:02.126Z,22.97
2022-11-05T09:25:30.195Z,23.17
2022-11-05T09:28:09.945Z,23.80
2022-11-05T09:30:44.779Z,23.56
2022-11-05T09:33:13.410Z,22.73
2022-11-05T09:35:42.853Z,22.54
2022-11-05T09:38:10.804Z,23.38
2022-11-05T09:41:00.168Z,23.83
2022-11-05T09:43:33.557Z,24.50
2022-11-05T09:46:09.342Z,22.03
2022-11-05T09:48:39.443Z,22.42
2022-11-05T09:51:07.750Z,21.96
2022-11-05T09:53:40.428Z,23.20
2022-11-05T09:56:19.054Z,23.91
2022-11-05T09:59:24.472Z,23.94
2022-11-05T10:01:58.707Z,23.83
2022-11-05T10:04:31.190Z,22.53
2022-11-05T10:07:01.720Z,22.74
2022-11-05T10:09:38.644Z,21.77
2022-11-05T10:12:15.446Z,23.36
2022-11-05T10:14:49.270Z,21.75
2022-11-05T10:17:24.514Z,21.40
2022-11-05T10:19:58.698Z,21.68
2022-11-05T10:22:26.762Z,21.41
2022-11-05T10:24:55.414Z,21.97
2022-11-05T10:27:29.132Z,22.56
2022-11-05T10:29:57.216Z,23.28
2022-11-05T10:33:05.861Z,22.84
2022-11-05T10:41:24.082Z,22.35
2022-11-05T10:44:19.153Z,21.66
2022-11-05T10:47:12.897Z,22.67
2022-11-05T10:49:47.889Z,22.67
2022-11-05T10:52:40.118Z,23.20
2022-11-05T10:55:17.352Z,22.52
2022-11-05T10:57:49.500Z,22.34
2022-11-05T11:00:16.936Z,22.82
2022-11-05T11:02:58.135Z,23.03
2022-11-05T11:05:31.479Z,22.10
2022-11-05T11:08:05.243Z,22.85
2022-11-05T11:10:41.960Z,22.35
2022-11-05T11:13:27.754Z,22.66
2022-11-05T11:16:13.084Z,23.40
2022-11-05T11:18:44.105Z,23.71
2022-11-05T11:21:19.852Z,24.34
2022-11-05T11:24:07.003Z,24.22
2022-11-05T11:26:38.309Z,23.18
2022-11-05T11:29:13.278Z,23.32
2022-11-05T11:31:41.336Z,23.38
2022-11-05T11:34:21.341Z,22.81
2022-11-05T11:36:54.264Z,22.91
2022-11-05T11:39:28.990Z,22.36
2022-11-05T11:42:00.472Z,22.68
2022-11-05T11:44:35.598Z,23.26
2022-11-05T11:47:10.172Z,22.99
2022-11-05T11:49:57.644Z,24.44
2022-11-05T11:52:36.923Z,23.62
2022-11-05T11:55:11.461Z,24.96
2022-11-05T11:57:45.489Z,24.90
2022-11-05T12:00:13.897Z,25.13
2022-11-05T12:03:06.830Z,24.44
2022-11-05T12:05:40.423Z,25.35
2022-11-05T12:08:07.846Z,25.43
2022-11-05T12:10:59.321Z,25.82
2022-11-05T12:14:26.968Z,26.19
2022-11-05T12:16:57.474Z,26.09
2022-11-05T12:19:31.684Z,26.65
2022-11-05T12:22:18.177Z,26.86
2022-11-05T12:25:27.069Z,26.47
2022-11-05T12:28:12.836Z,26.30
2022-11-05T12:31:07.251Z,26.50
2022-11-05T12:33:41.479Z,25.26
2022-11-05T12:36:39.710Z,26.25
2022-11-05T12:39:39.577Z,24.72
2022-11-05T12:42:30.375Z,23.95
2022-11-05T12:45:10.397Z,25.92
2022-11-05T12:48:08.313Z,26.53
2022-11-05T12:50:46.288Z,26.72
2022-11-05T12:53:38.685Z,27.33
2022-11-05T12:56:32.481Z,27.13
2022-11-05T12:59:27.519Z,26.87
2022-11-05T13:02:03.564Z,27.18
2022-11-05T13:04:59.150Z,26.95
2022-11-05T13:07:35.935Z,27.36
2022-11-05T13:10:18.979Z,26.43
2022-11-05T13:12:56.858Z,25.96
2022-11-05T13:15:49.407Z,26.58
2022-11-05T13:18:23.130Z,25.52
2022-11-05T13:20:54.095Z,25.98
2022-11-05T13:23:46.677Z,28.16
2022-11-05T13:27:16.346Z,28.11
2022-11-05T13:29:50.486Z,27.40
2022-11-05T13:32:36.192Z,29.44
2022-11-05T13:35:07.508Z,27.74
2022-11-05T13:37:59.935Z,28.42
2022-11-05T13:41:20.124Z,29.25
2022-11-05T13:44:09.951Z,30.81
2022-11-05T13:46:58.610Z,29.90
2022-11-05T13:49:47.015Z,28.84
2022-11-05T13:52:17.806Z,29.93
2022-11-05T13:55:07.267Z,30.94
2022-11-05T13:57:37.952Z,30.50
2022-11-05T14:00:11.564Z,31.87
2022-11-05T14:02:48.558Z,33.59
2022-11-05T14:05:24.829Z,32.38
2022-11-05T14:07:54.002Z,33.84
2022-11-05T14:10:31.569Z,34.75
2022-11-05T14:13:20.084Z,35.98
2022-11-05T14:16:05.937Z,33.78
2022-11-05T14:18:46.835Z,35.24
2022-11-05T14:21:26.707Z,34.83
2022-11-05T14:24:13.875Z,33.63
2022-11-05T14:26:41.455Z,30.95
2022-11-05T14:29:22.898Z,28.40
2022-11-05T14:32:08.695Z,31.29
2022-11-05T14:34:43.722Z,31.65
2022-11-05T14:37:11.855Z,30.22
2022-11-05T14:39:41.441Z,30.93
2022-11-05T14:42:12.274Z,30.86
2022-11-05T14:45:04.073Z,28.97
2022-11-05T14:47:40.697Z,26.46
2022-11-05T14:50:11.633Z,24.37
2022-11-05T14:52:50.098Z,22.74
2022-11-05T14:55:36.913Z,21.27
2022-11-05T14:58:29.430Z,21.08
2022-11-05T15:00:58.879Z,21.04
2022-11-05T15:03:33.276Z,20.71
2022-11-05T15:06:30.726Z,19.93
2022-11-05T15:08:59.236Z,19.66
2022-11-05T15:11:35.645Z,19.57
2022-11-05T15:14:08.502Z,19.48
2022-11-05T15:16:42.272Z,19.32
2022-11-05T15:19:37.116Z,19.20
2022-11-05T15:22:11.074Z,18.93
2022-11-05T15:24:41.727Z,18.55
2022-11-05T15:27:19.890Z,18.42
2022-11-05T15:29:47.914Z,18.40
2022-11-05T15:32:23.039Z,18.35
2022-11-05T15:34:55.921Z,18.29
2022-11-05T15:37:26.702Z,18.18
2022-11-05T15:39:55.628Z,18.13
2022-11-05T15:42:26.362Z,17.95
2022-11-05T15:44:57.395Z,18.02
2022-11-05T15:47:28.515Z,17.65
2022-11-05T15:50:14.026Z,17.56
2022-11-05T15:52:50.792Z,17.32
2022-11-05T15:55:23.666Z,17.05
2022-11-05T15:58:03.664Z,16.90
2022-11-05T16:00:34.659Z,16.86
2022-11-05T16:03:28.017Z,16.87
2022-11-05T16:05:56.278Z,16.69
2022-11-05T16:08:27.743Z,16.67
2022-11-05T16:11:00.878Z,16.57
2022-11-05T16:13:28.700Z,16.62
2022-11-05T16:15:59.338Z,16.48
2022-11-05T16:18:37.682Z,16.35
2022-11-05T16:21:10.027Z,16.46
2022-11-05T16:23:52.229Z,16.36
2022-11-05T16:29:41.470Z,16.07
2022-11-05T16:32:19.533Z,16.02
2022-11-05T16:34:50.488Z,15.99
2022-11-05T16:37:21.263Z,15.92
2022-11-05T16:39:49.929Z,15.85
2022-11-05T16:42:23.475Z,15.78
2022-11-05T16:44:54.176Z,15.72
2022-11-05T16:47:22.513Z,15.55
2022-11-05T16:49:51.173Z,15.55
2022-11-05T16:52:19.075Z,15.51
2022-11-05T16:54:46.582Z,15.42
2022-11-05T16:57:27.318Z,15.37
2022-11-05T16:59:55.805Z,15.22
2022-11-05T17:02:23.518Z,15.09
2022-11-05T17:04:51.796Z,14.94
2022-11-05T17:07:20.128Z,14.94
2022-11-05T17:09:48.090Z,14.92
2022-11-05T17:12:16.213Z,14.85
2022-11-05T17:14:43.779Z,14.74
2022-11-05T17:17:11.341Z,14.90
2022-11-05T17:19:42.433Z,14.86
2022-11-05T17:22:10.594Z,14.94
2022-11-05T17:24:38.930Z,14.79
2022-11-05T17:27:06.498Z,14.69
2022-11-05T17:29:34.502Z,14.64
2022-11-05T17:32:02.079Z,14.59
2022-11-05T17:34:29.660Z,14.46
2022-11-05T17:36:57.175Z,14.35
2022-11-05T17:39:31.203Z,14.43
2022-11-05T17:41:59.243Z,14.44
2022-11-05T17:44:27.439Z,14.47
2022-11-05T17:46:54.985Z,14.49
2022-11-05T17:49:22.989Z,14.55
2022-11-05T17:51:51.466Z,14.38
2022-11-05T17:54:19.456Z,14.20
2022-11-05T17:56:46.960Z,14.04
2022-11-05T17:59:14.811Z,14.12
2022-11-05T18:01:43.736Z,14.06
2022-11-05T18:04:12.395Z,13.91
2022-11-05T18:06:41.502Z,13.87
2022-11-05T18:09:10.851Z,13.88
2022-11-05T18:11:40.207Z,14.03
2022-11-05T18:14:08.082Z,14.00
2022-11-05T18:16:36.338Z,13.90
2022-11-05T18:19:04.426Z,13.79
2022-11-05T18:21:31.951Z,13.64
2022-11-05T18:24:03.932Z,13.57
2022-11-05T18:26:32.054Z,13.54
2022-11-05T18:29:05.144Z,13.51
2022-11-05T18:31:32.703Z,13.47
2022-11-05T18:34:00.731Z,13.43
2022-11-05T18:36:30.757Z,13.41
2022-11-05T18:39:00.449Z,13.19
2022-11-05T18:41:28.682Z,13.14
2022-11-05T18:44:00.907Z,13.04
2022-11-05T18:46:56.475Z,13.01
2022-11-05T18:49:17.733Z,12.96
2022-11-05T18:51:46.086Z,13.03
2022-11-05T18:54:14.421Z,12.98
2022-11-05T18:56:45.666Z,13.10
2022-11-05T18:59:35.905Z,13.08
2022-11-05T19:02:04.074Z,12.95
2022-11-05T19:04:31.843Z,12.87
2022-11-05T19:07:04.381Z,12.77
2022-11-05T19:09:34.455Z,12.73
2022-11-05T19:12:02.458Z,12.63
2022-11-05T19:14:32.706Z,12.73
2022-11-05T19:17:01.636Z,12.65
2022-11-05T19:19:29.469Z,12.89
2022-11-05T19:21:57.314Z,12.84
2022-11-05T19:24:24.820Z,12.71
2022-11-05T19:26:52.318Z,12.75
2022-11-05T19:29:19.878Z,12.65
2022-11-05T19:31:47.540Z,12.71
2022-11-05T19:34:16.177Z,12.55
2022-11-05T19:36:43.853Z,12.48
2022-11-05T19:39:14.440Z,12.45
2022-11-05T19:41:42.542Z,12.39
2022-11-05T19:44:10.883Z,12.30
2022-11-05T19:46:38.992Z,12.30
2022-11-05T19:49:06.898Z,12.38
2022-11-05T19:51:34.471Z,12.40
2022-11-05T19:54:03.603Z,12.40
2022-11-05T19:56:34.312Z,12.27
2022-11-05T19:59:03.841Z,12.15
2022-11-05T20:01:31.779Z,12.01
2022-11-05T20:04:02.519Z,12.04
2022-11-05T20:06:34.934Z,11.97
2022-11-05T20:09:21.015Z,11.86
2022-11-05T20:11:50.468Z,11.94
2022-11-05T20:14:18.496Z,12.01
2022-11-05T20:16:47.195Z,12.10
2022-11-05T20:19:17.430Z,12.08
2022-11-05T20:21:45.563Z,12.04
2022-11-05T20:24:20.577Z,11.97
2022-11-05T20:26:52.398Z,11.87
2022-11-05T20:29:20.317Z,11.98
2022-11-05T20:31:50.052Z,11.93
2022-11-05T20:34:18.119Z,11.91
2022-11-05T20:36:45.732Z,11.88
2022-11-05T20:39:13.278Z,11.81
2022-11-05T20:41:40.835Z,11.75
2022-11-05T20:44:08.915Z,11.72
2022-11-05T20:46:36.451Z,11.55
2022-11-05T20:49:04.163Z,11.65
2022-11-05T20:51:33.163Z,11.57
2022-11-05T20:54:01.781Z,11.51
2022-11-05T20:56:32.649Z,11.51
2022-11-05T20:59:01.000Z,11.45
2022-11-05T21:01:32.133Z,11.49
2022-11-05T21:04:00.737Z,11.57
2022-11-05T21:06:28.978Z,11.50
2022-11-05T21:08:56.482Z,11.40
2022-11-05T21:11:24.475Z,11.59
2022-11-05T21:13:52.621Z,11.54
2022-11-05T21:16:20.981Z,11.43
2022-11-05T21:18:49.045Z,11.32
2022-11-05T21:21:19.408Z,11.33
2022-11-05T21:23:47.617Z,11.47
2022-11-05T21:26:17.892Z,11.49
2022-11-05T21:28:45.648Z,11.33
2022-11-05T21:31:15.178Z,11.25
2022-11-05T21:33:43.263Z,11.15
2022-11-05T21:36:13.164Z,11.14
2022-11-05T21:38:41.604Z,11.09
2022-11-05T21:41:12.308Z,11.18
2022-11-05T21:43:41.765Z,11.10
2022-11-05T21:46:12.485Z,11.22
2022-11-05T21:48:40.472Z,11.13
2022-11-05T21:51:29.019Z,11.17
2022-11-05T21:54:15.859Z,11.23
2022-11-05T21:57:09.707Z,11.19
2022-11-05T21:59:48.454Z,11.16
2022-11-05T22:02:22.683Z,11.16
2022-11-05T22:04:52.638Z,11.15
2022-11-05T22:07:24.175Z,11.21
2022-11-05T22:09:53.585Z,11.06
2022-11-05T22:12:21.705Z,11.04
2022-11-05T22:14:49.586Z,11.10
2022-11-05T22:17:18.744Z,10.98
2022-11-05T22:19:47.073Z,11.11
2022-11-05T22:22:14.905Z,10.95
2022-11-05T22:24:43.637Z,10.87
2022-11-05T22:27:14.664Z,10.81
2022-11-05T22:29:43.055Z,10.77
2022-11-05T22:32:11.350Z,10.68
2022-11-05T22:34:39.701Z,10.72
2022-11-05T22:37:07.315Z,10.73
2022-11-05T22:39:34.863Z,10.76
2022-11-05T22:42:08.067Z,10.71
2022-11-05T22:44:36.682Z,10.61
2022-11-05T22:47:05.746Z,10.65
2022-11-05T22:49:34.001Z,10.53
2022-11-05T22:52:01.777Z,10.56
2022-11-05T22:54:29.514Z,10.62
2022-11-05T22:56:58.890Z,10.64
2022-11-05T22:59:26.575Z,10.56
2022-11-05T23:01:54.197Z,10.60
2022-11-05T23:04:21.730Z,10.58
2022-11-05T23:07:07.790Z,10.54
2022-11-05T23:09:54.496Z,10.54
2022-11-05T23:12:31.748Z,10.48
2022-11-05T23:15:02.150Z,10.46
2022-11-05T23:17:48.814Z,10.68
2022-11-05T23:20:41.271Z,10.62
2022-11-05T23:23:31.339Z,10.56
2022-11-05T23:26:21.018Z,10.39
2022-11-05T23:28:48.527Z,10.39
2022-11-05T23:31:34.540Z,10.41
2022-11-05T23:34:02.542Z,10.45
2022-11-05T23:36:49.414Z,10.51
2022-11-05T23:39:17.182Z,10.52
2022-11-05T23:42:03.738Z,10.41
2022-11-05T23:44:49.526Z,10.18
2022-11-05T23:47:36.501Z,10.07
2022-11-05T23:50:05.426Z,10.25
2022-11-05T23:52:33.026Z,10.15
2022-11-05T23:55:01.552Z,10.14
2022-11-05T23:57:29.668Z,10.16
2022-11-05T23:59:57.553Z,10.16
